createdAt,value
2018-02-21T00:01:34.785Z,78.53
2018-02-21T00:04:02.274Z,76.20
2018-02-21T00:06:29.768Z,91.53
2018-02-21T00:08:57.513Z,85.57
2018-02-21T00:11:25.757Z,80.50
2018-02-21T00:13:53.234Z,81.07
2018-02-21T00:16:20.820Z,82.33
2018-02-21T00:18:48.281Z,79.50
2018-02-21T00:21:15.780Z,67.23
2018-02-21T00:23:43.264Z,88.57
2018-02-21T00:26:10.745Z,77.37
2018-02-21T00:28:38.236Z,76.90
2018-02-21T00:31:05.693Z,80.83
2018-02-21T00:33:33.154Z,80.63
2018-02-21T00:36:00.633Z,91.93
2018-02-21T00:38:28.088Z,82.93
2018-02-21T00:40:55.691Z,79.00
2018-02-21T00:43:23.209Z,72.27
2018-02-21T00:45:50.670Z,79.53
2018-02-21T00:48:18.917Z,74.33
2018-02-21T00:50:46.368Z,72.40
2018-02-21T00:53:13.855Z,94.20
2018-02-21T00:55:41.313Z,83.63
2018-02-21T00:58:09.632Z,79.67
2018-02-21T01:00:37.896Z,76.75
2018-02-21T01:03:05.372Z,73.68
2018-02-21T01:05:33.637Z,86.30
2018-02-21T01:08:01.102Z,73.87
2018-02-21T01:10:29.361Z,73.87
2018-02-21T01:12:56.962Z,82.60
2018-02-21T01:15:24.478Z,73.27
2018-02-21T01:17:51.961Z,66.23
2018-02-21T01:20:20.275Z,79.60
2018-02-21T01:22:47.765Z,72.67
2018-02-21T01:25:15.221Z,82.77
2018-02-21T01:27:42.690Z,81.80
2018-02-21T01:30:10.189Z,75.65
2018-02-21T01:32:37.652Z,95.93
2018-02-21T01:35:05.119Z,70.67
2018-02-21T01:37:32.606Z,81.70
2018-02-21T01:40:00.161Z,73.47
2018-02-21T01:42:27.645Z,82.30
2018-02-21T01:44:55.162Z,74.13
2018-02-21T01:47:22.685Z,96.50
2018-02-21T01:49:52.021Z,84.67
2018-02-21T01:52:19.496Z,72.57
2018-02-21T01:54:46.953Z,72.40
2018-02-21T01:57:14.449Z,79.30
2018-02-21T01:59:42.014Z,71.17
2018-02-21T02:02:10.269Z,67.93
2018-02-21T02:04:37.727Z,89.33
2018-02-21T02:07:05.177Z,74.53
2018-02-21T02:09:32.674Z,85.28
2018-02-21T02:12:00.185Z,85.28
2018-02-21T02:14:27.686Z,92.33
2018-02-21T02:16:56.189Z,69.32
2018-02-21T02:19:24.469Z,73.43
2018-02-21T02:21:51.945Z,91.53
2018-02-21T02:24:19.436Z,77.67
2018-02-21T02:26:46.919Z,83.00
2018-02-21T02:29:15.168Z,80.07
2018-02-21T02:31:42.702Z,98.35
2018-02-21T02:34:10.180Z,101.40
2018-02-21T02:36:37.664Z,90.22
2018-02-21T02:39:16.856Z,76.67
2018-02-21T02:41:44.378Z,70.97
2018-02-21T02:44:12.650Z,80.13
2018-02-21T02:46:41.050Z,77.03
2018-02-21T02:49:08.582Z,82.75
2018-02-21T02:51:36.838Z,88.68
2018-02-21T02:54:04.334Z,79.73
2018-02-21T02:56:31.838Z,88.60
2018-02-21T02:58:59.326Z,85.90
2018-02-21T03:01:26.813Z,87.32
2018-02-21T03:03:54.309Z,86.10
2018-02-21T03:06:21.803Z,86.65
2018-02-21T03:08:50.050Z,95.80
2018-02-21T03:11:17.566Z,84.03
2018-02-21T03:13:45.811Z,85.80
2018-02-21T03:16:13.306Z,90.90
2018-02-21T03:18:40.778Z,90.10
2018-02-21T03:21:08.282Z,91.95
2018-02-21T03:23:35.809Z,96.43
2018-02-21T03:26:03.317Z,79.18
2018-02-21T03:28:31.542Z,89.37
2018-02-21T03:30:59.006Z,72.93
2018-02-21T03:33:26.493Z,95.17
2018-02-21T03:35:53.952Z,93.05
2018-02-21T03:38:21.453Z,87.13
2018-02-21T03:40:48.934Z,89.40
2018-02-21T03:43:16.421Z,94.05
2018-02-21T03:45:43.878Z,98.43
2018-02-21T03:48:11.388Z,89.03
2018-02-21T03:50:38.878Z,91.55
2018-02-21T03:53:06.381Z,87.97
2018-02-21T03:55:34.626Z,87.07
2018-02-21T03:58:02.113Z,87.97
2018-02-21T04:00:30.366Z,81.90
2018-02-21T04:02:57.893Z,82.87
2018-02-21T04:05:26.013Z,87.97
2018-02-21T04:07:53.492Z,101.10
2018-02-21T04:10:21.057Z,90.30
2018-02-21T04:12:48.541Z,64.20
2018-02-21T04:15:16.028Z,81.67
2018-02-21T04:17:43.525Z,89.22
2018-02-21T04:20:11.001Z,86.17
2018-02-21T04:22:38.486Z,73.97
2018-02-21T04:25:05.948Z,88.00
2018-02-21T04:27:33.436Z,71.65
2018-02-21T04:30:00.896Z,63.53
2018-02-21T04:32:28.389Z,64.30
2018-02-21T04:34:55.954Z,85.65
2018-02-21T04:37:23.440Z,105.00
2018-02-21T04:39:50.983Z,90.27
2018-02-21T04:42:18.485Z,91.45
2018-02-21T04:44:46.211Z,88.83
2018-02-21T04:47:13.745Z,104.35
2018-02-21T04:49:41.236Z,94.75
2018-02-21T04:52:08.705Z,97.17
2018-02-21T04:54:39.640Z,95.47
2018-02-21T05:00:10.698Z,99.72
2018-02-21T05:02:38.189Z,109.23
2018-02-21T05:05:05.649Z,98.30
2018-02-21T05:07:33.134Z,85.72
2018-02-21T05:10:01.367Z,100.87
2018-02-21T05:12:28.857Z,95.87
2018-02-21T05:14:57.250Z,104.80
2018-02-21T05:17:24.745Z,93.60
2018-02-21T05:19:53.012Z,86.97
2018-02-21T05:22:20.533Z,110.23
2018-02-21T05:24:48.848Z,93.53
2018-02-21T05:27:16.326Z,95.78
2018-02-21T05:29:43.817Z,95.47
2018-02-21T05:32:11.313Z,97.22
2018-02-21T05:34:38.793Z,100.50
2018-02-21T05:37:06.288Z,97.17
2018-02-21T05:39:33.801Z,106.53
2018-02-21T05:42:01.292Z,97.10
2018-02-21T05:44:28.756Z,82.30
2018-02-21T05:46:56.489Z,94.73
2018-02-21T05:49:23.974Z,90.22
2018-02-21T05:51:51.620Z,89.22
2018-02-21T05:54:19.090Z,100.20
2018-02-21T05:56:46.587Z,98.68
2018-02-21T05:59:14.856Z,105.03
2018-02-21T06:01:43.160Z,98.20
2018-02-21T06:04:10.657Z,105.87
2018-02-21T06:06:38.126Z,101.32
2018-02-21T06:09:05.616Z,101.32
2018-02-21T06:11:33.116Z,102.55
2018-02-21T06:14:00.576Z,90.78
2018-02-21T06:16:28.052Z,91.57
2018-02-21T06:18:56.607Z,95.60
2018-02-21T06:21:24.093Z,105.95
2018-02-21T06:23:51.581Z,98.10
2018-02-21T06:26:19.817Z,88.95
2018-02-21T06:28:47.313Z,103.12
2018-02-21T06:31:14.823Z,90.53
2018-02-21T06:33:42.305Z,84.62
2018-02-21T06:36:09.785Z,97.85
2018-02-21T06:38:37.367Z,94.93
2018-02-21T06:41:04.871Z,97.60
2018-02-21T06:43:32.401Z,95.53
2018-02-21T06:45:59.866Z,96.82
2018-02-21T06:48:27.360Z,105.72
2018-02-21T06:50:54.846Z,97.55
2018-02-21T06:53:23.098Z,94.40
2018-02-21T06:55:50.588Z,99.60
2018-02-21T06:58:18.198Z,103.90
2018-02-21T07:00:46.429Z,108.43
2018-02-21T07:03:14.689Z,100.30
2018-02-21T07:05:42.153Z,98.47
2018-02-21T07:08:10.407Z,87.80
2018-02-21T07:10:37.865Z,96.28
2018-02-21T07:13:05.356Z,104.00
2018-02-21T07:15:33.653Z,96.60
2018-02-21T07:18:01.077Z,113.57
2018-02-21T07:20:28.559Z,89.62
2018-02-21T07:22:56.243Z,101.47
2018-02-21T07:25:23.762Z,89.25
2018-02-21T07:27:51.254Z,80.53
2018-02-21T07:30:18.718Z,105.82
2018-02-21T07:32:46.204Z,89.25
2018-02-21T07:35:13.704Z,91.75
2018-02-21T07:37:41.209Z,106.87
2018-02-21T07:40:08.708Z,93.22
2018-02-21T07:42:36.181Z,101.80
2018-02-21T07:45:04.588Z,95.78
2018-02-21T07:47:32.086Z,88.20
2018-02-21T07:49:59.592Z,96.53
2018-02-21T07:52:27.100Z,108.93
2018-02-21T07:54:54.762Z,100.68
2018-02-21T07:57:22.250Z,88.47
2018-02-21T07:59:49.753Z,89.62
2018-02-21T08:02:17.268Z,107.50
2018-02-21T08:04:45.517Z,104.12
2018-02-21T08:07:12.986Z,95.60
2018-02-21T08:09:40.485Z,112.43
2018-02-21T08:12:07.972Z,106.03
2018-02-21T08:14:35.453Z,84.27
2018-02-21T08:17:02.978Z,92.57
2018-02-21T08:19:30.511Z,99.85
2018-02-21T08:21:58.008Z,103.78
2018-02-21T08:24:25.501Z,99.75
2018-02-21T08:26:52.968Z,103.38
2018-02-21T08:29:20.461Z,75.00
2018-02-21T08:31:47.934Z,95.20
2018-02-21T08:34:15.399Z,103.93
2018-02-21T08:36:42.897Z,96.97
2018-02-21T08:39:10.432Z,92.57
2018-02-21T08:41:38.043Z,53.83
2018-02-21T08:44:05.521Z,97.85
2018-02-21T08:46:33.021Z,106.65
2018-02-21T08:49:00.477Z,93.73
2018-02-21T08:51:27.937Z,102.20
2018-02-21T08:53:55.724Z,103.80
2018-02-21T08:56:23.255Z,92.60
2018-02-21T08:58:50.754Z,100.05
2018-02-21T09:01:19.000Z,88.70
2018-02-21T09:03:46.459Z,97.50
2018-02-21T09:06:13.982Z,106.10
2018-02-21T09:08:41.446Z,104.23
2018-02-21T09:11:08.934Z,95.22
2018-02-21T09:13:36.401Z,86.87
2018-02-21T09:16:03.876Z,89.40
2018-02-21T09:18:31.325Z,96.87
2018-02-21T09:20:58.810Z,87.00
2018-02-21T09:23:26.291Z,100.83
2018-02-21T09:25:53.758Z,92.97
2018-02-21T09:28:21.303Z,90.35
2018-02-21T09:30:48.771Z,89.13
2018-02-21T09:33:16.298Z,79.83
2018-02-21T09:35:44.512Z,92.97
2018-02-21T09:38:12.788Z,100.90
2018-02-21T09:40:40.236Z,84.97
2018-02-21T09:43:07.707Z,97.80
2018-02-21T09:45:35.189Z,94.70
2018-02-21T09:48:02.696Z,86.03
2018-02-21T09:50:30.194Z,73.53
2018-02-21T09:52:57.669Z,87.90
2018-02-21T09:55:25.137Z,86.27
2018-02-21T09:57:53.393Z,75.00
2018-02-21T10:00:20.868Z,93.37
2018-02-21T10:02:48.337Z,92.13
2018-02-21T10:05:15.803Z,83.43
2018-02-21T10:07:43.309Z,81.23
2018-02-21T10:10:10.771Z,79.93
2018-02-21T10:12:38.288Z,102.10
2018-02-21T10:15:05.749Z,91.40
2018-02-21T10:17:33.229Z,78.47
2018-02-21T10:20:00.805Z,70.87
2018-02-21T10:22:28.261Z,76.40
2018-02-21T10:24:56.016Z,81.43
2018-02-21T10:27:23.577Z,57.77
2018-02-21T10:29:51.037Z,97.07
2018-02-21T10:32:18.521Z,78.77
2018-02-21T10:34:45.990Z,87.97
2018-02-21T10:37:13.441Z,81.00
2018-02-21T10:39:40.913Z,78.03
2018-02-21T10:42:08.387Z,59.83
2018-02-21T10:44:35.866Z,62.63
2018-02-21T10:47:03.325Z,33.53
2018-02-21T10:49:30.779Z,80.63
2018-02-21T10:51:58.258Z,70.33
2018-02-21T10:54:25.742Z,71.03
2018-02-21T10:56:53.212Z,60.80
2018-02-21T10:59:20.728Z,80.67
2018-02-21T11:01:48.199Z,69.17
2018-02-21T11:04:15.720Z,73.70
2018-02-21T11:06:43.195Z,68.57
2018-02-21T11:09:10.747Z,71.53
2018-02-21T11:11:38.245Z,67.70
2018-02-21T11:14:05.745Z,69.40
2018-02-21T11:16:33.218Z,75.03
2018-02-21T11:19:00.709Z,68.50
2018-02-21T11:21:28.271Z,65.73
2018-02-21T11:23:56.081Z,63.00
2018-02-21T11:26:24.305Z,50.40
2018-02-21T11:28:51.784Z,59.63
2018-02-21T11:31:19.264Z,58.93
2018-02-21T11:33:46.758Z,50.87
2018-02-21T11:36:14.237Z,46.90
2018-02-21T11:38:41.743Z,46.70
2018-02-21T11:41:09.248Z,44.20
2018-02-21T11:43:36.725Z,48.33
2018-02-21T11:46:04.181Z,51.67
2018-02-21T11:48:31.667Z,50.17
2018-02-21T11:50:59.294Z,58.37
2018-02-21T11:53:26.774Z,51.23
2018-02-21T11:55:54.395Z,52.50
2018-02-21T11:58:21.914Z,53.70
2018-02-21T12:00:49.370Z,56.00
2018-02-21T12:03:16.849Z,46.97
2018-02-21T12:05:45.073Z,53.83
2018-02-21T12:08:12.596Z,48.50
2018-02-21T12:10:40.059Z,48.30
2018-02-21T12:13:07.536Z,52.20
2018-02-21T12:15:34.990Z,48.60
2018-02-21T12:18:02.477Z,49.50
2018-02-21T12:20:29.940Z,47.80
2018-02-21T12:22:57.441Z,61.60
2018-02-21T12:25:25.697Z,55.80
2018-02-21T12:27:53.146Z,57.50
2018-02-21T12:30:21.241Z,53.30
2018-02-21T12:32:48.693Z,55.60
2018-02-21T12:35:16.232Z,53.77
2018-02-21T12:37:43.702Z,43.97
2018-02-21T12:40:16.941Z,45.37
2018-02-21T12:42:44.409Z,46.77
2018-02-21T12:45:11.868Z,48.10
2018-02-21T12:47:39.381Z,44.17
2018-02-21T12:50:07.689Z,45.00
2018-02-21T12:52:35.125Z,47.17
2018-02-21T12:55:02.816Z,55.97
2018-02-21T12:57:30.264Z,48.03
2018-02-21T12:59:57.777Z,48.00
2018-02-21T13:02:25.246Z,47.07
2018-02-21T13:04:53.524Z,44.77
2018-02-21T13:07:21.050Z,45.33
2018-02-21T13:09:48.533Z,44.53
2018-02-21T13:12:16.025Z,45.63
2018-02-21T13:14:43.511Z,39.87
2018-02-21T13:17:10.965Z,44.50
2018-02-21T13:19:38.480Z,44.00
2018-02-21T13:22:06.724Z,28.50
2018-02-21T13:24:34.194Z,42.30
2018-02-21T13:27:01.673Z,54.60
2018-02-21T13:29:29.937Z,43.67
2018-02-21T13:31:57.438Z,44.00
2018-02-21T13:34:24.893Z,45.00
2018-02-21T13:36:52.352Z,53.70
2018-02-21T13:39:19.853Z,42.03
2018-02-21T13:41:47.332Z,48.10
2018-02-21T13:44:14.946Z,47.17
2018-02-21T13:46:42.517Z,37.83
2018-02-21T13:49:09.978Z,46.97
2018-02-21T13:51:37.485Z,45.37
2018-02-21T13:54:04.937Z,39.23
2018-02-21T13:56:32.390Z,45.07
2018-02-21T13:58:59.893Z,50.00
2018-02-21T14:01:27.369Z,45.87
2018-02-21T14:03:55.073Z,43.10
2018-02-21T14:06:22.604Z,46.10
2018-02-21T14:08:50.084Z,45.77
2018-02-21T14:11:17.561Z,54.60
2018-02-21T14:13:45.013Z,40.97
2018-02-21T14:16:12.518Z,43.47
2018-02-21T14:18:40.037Z,46.93
2018-02-21T14:21:08.253Z,44.60
2018-02-21T14:23:35.760Z,46.70
2018-02-21T14:26:03.220Z,47.50
2018-02-21T14:28:31.440Z,50.17
2018-02-21T14:30:58.924Z,50.90
2018-02-21T14:33:26.414Z,45.60
2018-02-21T14:35:54.896Z,45.00
2018-02-21T14:38:22.495Z,41.37
2018-02-21T14:40:49.947Z,41.83
2018-02-21T14:43:17.423Z,46.83
2018-02-21T14:45:44.890Z,40.10
2018-02-21T14:48:13.190Z,40.73
2018-02-21T14:50:40.637Z,40.70
2018-02-21T14:53:08.182Z,46.77
2018-02-21T14:55:36.092Z,39.23
2018-02-21T14:58:03.553Z,42.20
2018-02-21T15:00:31.805Z,38.63
2018-02-21T15:02:59.272Z,41.90
2018-02-21T15:05:26.786Z,44.10
2018-02-21T15:07:54.357Z,42.57
2018-02-21T15:10:23.015Z,41.00
2018-02-21T15:12:50.506Z,38.93
2018-02-21T15:15:17.969Z,37.00
2018-02-21T15:17:45.472Z,41.83
2018-02-21T15:20:12.905Z,42.70
2018-02-21T15:22:41.042Z,39.40
2018-02-21T15:25:08.510Z,40.00
2018-02-21T15:27:35.985Z,42.53
2018-02-21T15:30:03.472Z,39.40
2018-02-21T15:32:30.940Z,39.67
2018-02-21T15:34:59.163Z,61.70
2018-02-21T15:37:26.648Z,38.73
2018-02-21T15:39:55.026Z,47.23
2018-02-21T15:42:22.506Z,43.10
2018-02-21T15:44:50.005Z,48.37
2018-02-21T15:47:17.481Z,42.30
2018-02-21T15:49:45.042Z,46.20
2018-02-21T15:52:12.529Z,48.97
2018-02-21T15:54:40.024Z,38.40
2018-02-21T15:57:07.486Z,42.77
2018-02-21T15:59:34.963Z,48.37
2018-02-21T16:02:02.456Z,47.20
2018-02-21T16:04:29.933Z,49.03
2018-02-21T16:06:58.185Z,49.70
2018-02-21T16:09:25.683Z,46.50
2018-02-21T16:11:54.220Z,46.33
2018-02-21T16:14:21.760Z,52.83
2018-02-21T16:16:49.245Z,51.20
2018-02-21T16:19:16.696Z,48.57
2018-02-21T16:21:44.179Z,45.93
2018-02-21T16:24:11.670Z,52.43
2018-02-21T16:26:39.129Z,95.33
2018-02-21T16:29:06.610Z,47.00
2018-02-21T16:31:34.087Z,51.53
2018-02-21T16:34:01.542Z,48.10
2018-02-21T16:36:29.057Z,47.13
2018-02-21T16:38:56.602Z,46.53
2018-02-21T16:41:24.850Z,53.00
2018-02-21T16:43:52.332Z,53.97
2018-02-21T16:46:20.574Z,64.87
2018-02-21T16:48:48.054Z,56.67
2018-02-21T16:51:15.530Z,59.53
2018-02-21T16:53:43.781Z,56.40
2018-02-21T16:56:11.313Z,66.13
2018-02-21T16:58:38.790Z,56.00
2018-02-21T17:01:06.270Z,54.37
2018-02-21T17:03:33.731Z,62.13
2018-02-21T17:06:01.202Z,59.37
2018-02-21T17:31:10.441Z,61.90
2018-02-21T17:33:38.055Z,61.70
2018-02-21T17:36:05.674Z,64.90
2018-02-21T17:38:33.253Z,63.70
2018-02-21T17:41:07.489Z,62.97
2018-02-21T17:43:35.959Z,55.43
2018-02-21T17:46:03.712Z,59.17
2018-02-21T17:48:32.226Z,58.90
2018-02-21T17:50:59.928Z,58.43
2018-02-21T17:53:27.408Z,56.73
2018-02-21T17:55:55.080Z,54.30
2018-02-21T17:58:22.568Z,61.50
2018-02-21T18:00:50.822Z,55.10
2018-02-21T18:03:18.483Z,58.83
2018-02-21T18:05:45.945Z,53.37
2018-02-21T18:08:13.791Z,57.37
2018-02-21T18:10:41.289Z,61.07
2018-02-21T18:13:08.992Z,61.80
2018-02-21T18:15:36.706Z,82.67
2018-02-21T18:18:04.388Z,63.73
2018-02-21T18:20:32.056Z,62.33
2018-02-21T18:22:59.516Z,63.17
2018-02-21T18:25:27.324Z,67.10
2018-02-21T18:27:54.879Z,63.77
2018-02-21T18:30:22.615Z,64.13
2018-02-21T18:32:50.899Z,68.20
2018-02-21T18:35:18.435Z,63.77
2018-02-21T18:37:46.060Z,63.77
2018-02-21T18:40:14.584Z,60.33
2018-02-21T18:42:42.172Z,53.63
2018-02-21T18:45:09.858Z,57.37
2018-02-21T18:47:38.118Z,50.83
2018-02-21T18:50:05.657Z,56.77
2018-02-21T18:52:33.125Z,50.77
2018-02-21T18:55:00.606Z,73.60
2018-02-21T18:57:28.062Z,52.93
2018-02-21T18:59:55.534Z,60.97
2018-02-21T19:02:23.016Z,53.47
2018-02-21T19:04:50.470Z,60.17
2018-02-21T19:07:17.965Z,52.30
2018-02-21T19:09:45.412Z,52.40
2018-02-21T19:12:12.888Z,64.20
2018-02-21T19:14:40.351Z,46.97
2018-02-21T19:17:08.068Z,48.00
2018-02-21T19:19:36.007Z,54.07
2018-02-21T19:22:03.602Z,51.00
2018-02-21T19:24:31.302Z,52.73
2018-02-21T19:26:58.826Z,43.07
2018-02-21T19:29:26.308Z,42.10
2018-02-21T19:31:53.770Z,46.50
2018-02-21T19:34:21.248Z,48.30
2018-02-21T19:36:48.758Z,42.67
2018-02-21T19:39:16.258Z,55.03
2018-02-21T19:41:43.767Z,47.50
2018-02-21T19:44:11.431Z,51.80
2018-02-21T19:46:39.812Z,46.40
2018-02-21T19:49:07.461Z,45.23
2018-02-21T19:51:34.988Z,43.63
2018-02-21T19:54:02.517Z,50.37
2018-02-21T19:56:30.763Z,40.37
2018-02-21T19:58:59.101Z,45.23
2018-02-21T20:01:27.529Z,51.97
2018-02-21T20:03:55.184Z,44.67
2018-02-21T20:06:22.804Z,40.20
2018-02-21T20:08:50.278Z,42.57
2018-02-21T20:11:17.757Z,49.77
2018-02-21T20:13:45.253Z,47.77
2018-02-21T20:16:13.505Z,52.93
2018-02-21T20:18:40.970Z,47.40
2018-02-21T20:21:09.206Z,49.57
2018-02-21T20:23:37.729Z,49.00
2018-02-21T20:26:05.955Z,49.10
2018-02-21T20:28:34.185Z,54.53
2018-02-21T20:31:02.768Z,45.00
2018-02-21T20:33:30.285Z,48.60
2018-02-21T20:35:57.767Z,51.43
2018-02-21T20:38:25.806Z,55.43
2018-02-21T20:40:53.393Z,50.23
2018-02-21T20:43:21.641Z,57.27
2018-02-21T20:45:49.109Z,53.07
2018-02-21T20:48:16.582Z,56.50
2018-02-21T20:50:44.190Z,54.70
2018-02-21T20:53:11.870Z,55.17
2018-02-21T20:55:39.604Z,61.13
2018-02-21T20:58:07.286Z,48.90
2018-02-21T21:00:34.962Z,56.63
2018-02-21T21:03:02.637Z,50.43
2018-02-21T21:05:30.290Z,43.37
2018-02-21T21:07:57.949Z,49.93
2018-02-21T21:10:25.769Z,50.07
2018-02-21T21:12:53.399Z,55.83
2018-02-21T21:15:21.174Z,56.50
2018-02-21T21:17:48.992Z,47.20
2018-02-21T21:20:16.814Z,52.93
2018-02-21T21:22:44.598Z,51.10
2018-02-21T21:25:13.105Z,48.57
2018-02-21T21:27:41.615Z,52.53
2018-02-21T21:30:09.303Z,51.07
2018-02-21T21:32:36.898Z,44.27
2018-02-21T21:35:05.386Z,47.73
2018-02-21T21:37:33.795Z,53.97
2018-02-21T21:40:01.617Z,46.10
2018-02-21T21:42:29.201Z,53.33
2018-02-21T21:44:57.592Z,44.90
2018-02-21T21:47:25.324Z,59.63
2018-02-21T21:49:52.960Z,53.50
2018-02-21T21:52:20.660Z,46.80
2018-02-21T21:54:49.084Z,53.00
2018-02-21T21:57:16.745Z,49.93
2018-02-21T21:59:44.462Z,49.27
2018-02-21T22:02:12.852Z,49.90
2018-02-21T22:04:41.291Z,57.10
2018-02-21T22:07:09.007Z,47.97
2018-02-21T22:09:36.823Z,60.40
2018-02-21T22:12:04.579Z,55.77
2018-02-21T22:14:32.168Z,44.83
2018-02-21T22:17:00.669Z,50.57
2018-02-21T22:19:29.151Z,46.57
2018-02-21T22:21:56.837Z,47.20
2018-02-21T22:24:24.686Z,53.33
2018-02-21T22:26:52.302Z,51.17
2018-02-21T22:29:19.869Z,51.70
2018-02-21T22:31:47.559Z,47.63
2018-02-21T22:34:16.054Z,48.00
2018-02-21T22:36:44.572Z,51.60
2018-02-21T22:39:13.174Z,53.03
2018-02-21T22:41:40.852Z,52.37
2018-02-21T22:44:08.542Z,44.67
2018-02-21T22:46:36.928Z,52.50
2018-02-21T22:49:04.635Z,48.07
2018-02-21T22:51:32.287Z,48.50
2018-02-21T22:53:59.966Z,50.87
2018-02-21T22:56:27.541Z,40.47
2018-02-21T22:58:55.326Z,47.30
2018-02-21T23:01:22.999Z,46.17
2018-02-21T23:03:51.397Z,46.60
2018-02-21T23:06:19.163Z,43.73
2018-02-21T23:08:46.803Z,36.00
2018-02-21T23:11:15.206Z,52.07
2018-02-21T23:13:42.840Z,44.00
2018-02-21T23:16:10.573Z,41.60
2018-02-21T23:18:38.262Z,37.83
2018-02-21T23:21:05.944Z,37.43
2018-02-21T23:23:34.415Z,43.10
2018-02-21T23:26:02.835Z,45.30
2018-02-21T23:28:30.466Z,34.97
2018-02-21T23:30:58.122Z,36.17
2018-02-21T23:33:25.800Z,41.90
2018-02-21T23:35:53.282Z,42.47
2018-02-21T23:38:20.839Z,42.10
2018-02-21T23:40:48.326Z,35.63
2018-02-21T23:43:15.785Z,39.37
2018-02-21T23:45:43.272Z,44.73
2018-02-21T23:48:10.778Z,41.70
2018-02-21T23:50:38.241Z,40.63
2018-02-21T23:53:05.695Z,34.60
2018-02-21T23:55:33.202Z,37.63
2018-02-21T23:58:00.658Z,32.03
